Alpine, New Jersey
Current Conditions -  °F | °C
As of 7:51 AM on Thursday 27 Nov 2014 (Local Time) from KTEB Reporting Station
Light Snow Light Snow  
Wind Chill:   Ceiling: 8000
Heat Index:   Visibility: 9mi
Dew Point: -1°   Wind: 3mph
Humidity: 79%   Direction: 350°N
Pressure: 29.98"   Gusts: NA
Location:  40.96°N, 73.93°W
Report Text: KTEB 271251Z 35003KT 9SM -SN OVC080 02/M01 A2998 RMK AO2 SNB14 SLP150 P0000 T00221011 $
Loading
Personal Weather Stations






























Interactive Weather Map New forecast layout! Learn more

10-Day Weather Forecast

Advertisements
Track Severe Weather on mobile